sensor_id;sensor_type;location;lat;lon;timestamp;P1;durP1;ratioP1;P2;durP2;ratioP2
70997;SDS011;58663;52.040;4.634;2023-02-21T00:00:10;39.20;;;14.38;;
70997;SDS011;58663;52.040;4.634;2023-02-21T00:02:55;37.33;;;13.93;;
70997;SDS011;58663;52.040;4.634;2023-02-21T00:05:39;40.67;;;13.75;;
70997;SDS011;58663;52.040;4.634;2023-02-21T00:08:23;33.95;;;13.77;;
70997;SDS011;58663;52.040;4.634;2023-02-21T00:11:07;35.75;;;13.25;;
70997;SDS011;58663;52.040;4.634;2023-02-21T00:13:51;31.85;;;13.43;;
70997;SDS011;58663;52.040;4.634;2023-02-21T00:16:35;32.88;;;13.60;;
70997;SDS011;58663;52.040;4.634;2023-02-21T00:19:19;39.85;;;14.95;;
70997;SDS011;58663;52.040;4.634;2023-02-21T00:22:03;37.00;;;14.30;;
70997;SDS011;58663;52.040;4.634;2023-02-21T00:24:47;37.08;;;14.13;;
70997;SDS011;58663;52.040;4.634;2023-02-21T00:27:31;41.03;;;15.02;;
70997;SDS011;58663;52.040;4.634;2023-02-21T00:30:15;42.40;;;16.63;;
70997;SDS011;58663;52.040;4.634;2023-02-21T00:32:59;43.55;;;16.20;;
70997;SDS011;58663;52.040;4.634;2023-02-21T00:35:43;39.47;;;14.50;;
70997;SDS011;58663;52.040;4.634;2023-02-21T00:38:27;47.10;;;15.85;;
70997;SDS011;58663;52.040;4.634;2023-02-21T00:41:11;34.78;;;13.63;;
70997;SDS011;58663;52.040;4.634;2023-02-21T00:43:55;40.03;;;14.73;;
70997;SDS011;58663;52.040;4.634;2023-02-21T00:46:39;40.00;;;16.13;;
70997;SDS011;58663;52.040;4.634;2023-02-21T00:49:24;37.72;;;14.07;;
70997;SDS011;58663;52.040;4.634;2023-02-21T00:52:08;37.08;;;15.20;;
70997;SDS011;58663;52.040;4.634;2023-02-21T00:54:52;38.65;;;15.40;;
70997;SDS011;58663;52.040;4.634;2023-02-21T00:57:36;43.25;;;14.98;;
70997;SDS011;58663;52.040;4.634;2023-02-21T01:00:21;40.35;;;14.23;;
70997;SDS011;58663;52.040;4.634;2023-02-21T01:03:06;49.47;;;14.93;;
70997;SDS011;58663;52.040;4.634;2023-02-21T01:05:50;46.28;;;16.73;;
70997;SDS011;58663;52.040;4.634;2023-02-21T01:08:35;52.63;;;16.27;;
70997;SDS011;58663;52.040;4.634;2023-02-21T01:11:19;37.72;;;14.80;;
70997;SDS011;58663;52.040;4.634;2023-02-21T01:14:04;45.60;;;16.00;;
70997;SDS011;58663;52.040;4.634;2023-02-21T01:16:50;41.03;;;16.05;;
70997;SDS011;58663;52.040;4.634;2023-02-21T01:19:34;47.17;;;16.23;;
70997;SDS011;58663;52.040;4.634;2023-02-21T01:22:18;42.45;;;16.75;;
70997;SDS011;58663;52.040;4.634;2023-02-21T01:25:02;51.65;;;18.05;;
70997;SDS011;58663;52.040;4.634;2023-02-21T01:27:47;50.25;;;18.63;;
70997;SDS011;58663;52.040;4.634;2023-02-21T01:30:30;50.47;;;17.38;;
70997;SDS011;58663;52.040;4.634;2023-02-21T01:33:15;48.30;;;17.20;;
70997;SDS011;58663;52.040;4.634;2023-02-21T01:35:59;48.38;;;17.13;;
70997;SDS011;58663;52.040;4.634;2023-02-21T01:38:43;44.70;;;16.88;;
70997;SDS011;58663;52.040;4.634;2023-02-21T01:41:27;48.78;;;18.35;;
70997;SDS011;58663;52.040;4.634;2023-02-21T01:47:15;49.03;;;18.75;;
70997;SDS011;58663;52.040;4.634;2023-02-21T01:50:00;47.67;;;18.40;;
70997;SDS011;58663;52.040;4.634;2023-02-21T01:52:45;49.85;;;18.80;;
70997;SDS011;58663;52.040;4.634;2023-02-21T01:55:30;61.33;;;19.38;;
70997;SDS011;58663;52.040;4.634;2023-02-21T01:58:15;51.30;;;20.23;;
70997;SDS011;58663;52.040;4.634;2023-02-21T02:00:59;49.90;;;18.17;;
70997;SDS011;58663;52.040;4.634;2023-02-21T02:03:44;55.92;;;20.40;;
70997;SDS011;58663;52.040;4.634;2023-02-21T02:06:28;53.92;;;19.88;;
70997;SDS011;58663;52.040;4.634;2023-02-21T02:09:16;51.50;;;19.40;;
70997;SDS011;58663;52.040;4.634;2023-02-21T02:42:36;47.60;;;20.80;;
70997;SDS011;58663;52.040;4.634;2023-02-21T02:47:51;46.97;;;19.10;;
70997;SDS011;58663;52.040;4.634;2023-02-21T02:50:19;58.25;;;21.85;;
70997;SDS011;58663;52.040;4.634;2023-02-21T02:52:53;50.58;;;19.23;;
70997;SDS011;58663;52.040;4.634;2023-02-21T02:55:24;52.20;;;21.20;;
70997;SDS011;58663;52.040;4.634;2023-02-21T02:57:56;57.30;;;22.35;;
70997;SDS011;58663;52.040;4.634;2023-02-21T03:00:22;55.28;;;20.55;;
70997;SDS011;58663;52.040;4.634;2023-02-21T03:05:32;59.45;;;21.77;;
70997;SDS011;58663;52.040;4.634;2023-02-21T03:16:21;62.67;;;24.02;;
70997;SDS011;58663;52.040;4.634;2023-02-21T03:18:49;70.95;;;24.05;;
70997;SDS011;58663;52.040;4.634;2023-02-21T03:21:29;71.50;;;26.08;;
70997;SDS011;58663;52.040;4.634;2023-02-21T03:23:57;72.90;;;24.75;;
70997;SDS011;58663;52.040;4.634;2023-02-21T03:26:25;70.15;;;23.02;;
70997;SDS011;58663;52.040;4.634;2023-02-21T03:28:52;67.50;;;23.67;;
70997;SDS011;58663;52.040;4.634;2023-02-21T03:31:18;75.38;;;25.27;;
70997;SDS011;58663;52.040;4.634;2023-02-21T03:33:46;63.03;;;23.15;;
70997;SDS011;58663;52.040;4.634;2023-02-21T03:36:11;69.63;;;24.55;;
70997;SDS011;58663;52.040;4.634;2023-02-21T03:38:37;81.93;;;26.60;;
70997;SDS011;58663;52.040;4.634;2023-02-21T03:41:02;70.40;;;24.90;;
70997;SDS011;58663;52.040;4.634;2023-02-21T03:43:28;67.70;;;25.42;;
70997;SDS011;58663;52.040;4.634;2023-02-21T03:45:53;75.53;;;24.73;;
70997;SDS011;58663;52.040;4.634;2023-02-21T03:48:18;58.75;;;23.85;;
70997;SDS011;58663;52.040;4.634;2023-02-21T03:50:44;72.68;;;24.92;;
70997;SDS011;58663;52.040;4.634;2023-02-21T03:53:09;63.55;;;24.08;;
70997;SDS011;58663;52.040;4.634;2023-02-21T03:55:35;68.45;;;24.55;;
70997;SDS011;58663;52.040;4.634;2023-02-21T03:58:00;75.68;;;26.75;;
70997;SDS011;58663;52.040;4.634;2023-02-21T04:00:26;74.82;;;25.25;;
70997;SDS011;58663;52.040;4.634;2023-02-21T04:02:51;70.68;;;25.15;;
70997;SDS011;58663;52.040;4.634;2023-02-21T04:05:16;71.35;;;25.67;;
70997;SDS011;58663;52.040;4.634;2023-02-21T04:07:42;66.97;;;25.25;;
70997;SDS011;58663;52.040;4.634;2023-02-21T04:10:07;69.82;;;25.60;;
70997;SDS011;58663;52.040;4.634;2023-02-21T04:12:33;71.20;;;24.17;;
70997;SDS011;58663;52.040;4.634;2023-02-21T04:14:58;69.60;;;25.90;;
70997;SDS011;58663;52.040;4.634;2023-02-21T04:17:24;73.63;;;24.50;;
70997;SDS011;58663;52.040;4.634;2023-02-21T04:19:50;74.55;;;25.50;;
70997;SDS011;58663;52.040;4.634;2023-02-21T04:22:15;72.32;;;25.20;;
70997;SDS011;58663;52.040;4.634;2023-02-21T04:24:41;82.45;;;26.00;;
70997;SDS011;58663;52.040;4.634;2023-02-21T04:27:06;67.53;;;24.48;;
70997;SDS011;58663;52.040;4.634;2023-02-21T04:29:32;67.45;;;24.67;;
70997;SDS011;58663;52.040;4.634;2023-02-21T04:31:57;70.15;;;24.85;;
70997;SDS011;58663;52.040;4.634;2023-02-21T04:34:22;71.93;;;23.67;;
70997;SDS011;58663;52.040;4.634;2023-02-21T04:36:48;67.40;;;25.58;;
70997;SDS011;58663;52.040;4.634;2023-02-21T04:39:13;63.47;;;23.30;;
70997;SDS011;58663;52.040;4.634;2023-02-21T04:41:39;62.40;;;23.52;;
70997;SDS011;58663;52.040;4.634;2023-02-21T04:44:04;65.53;;;25.25;;
70997;SDS011;58663;52.040;4.634;2023-02-21T04:46:30;73.25;;;25.15;;
70997;SDS011;58663;52.040;4.634;2023-02-21T04:48:55;74.45;;;24.52;;
70997;SDS011;58663;52.040;4.634;2023-02-21T04:51:21;72.32;;;26.00;;
70997;SDS011;58663;52.040;4.634;2023-02-21T04:53:48;78.75;;;23.83;;
70997;SDS011;58663;52.040;4.634;2023-02-21T04:56:14;75.88;;;26.25;;
70997;SDS011;58663;52.040;4.634;2023-02-21T04:58:40;67.35;;;23.85;;
70997;SDS011;58663;52.040;4.634;2023-02-21T05:01:06;76.32;;;25.52;;
70997;SDS011;58663;52.040;4.634;2023-02-21T05:03:31;65.50;;;25.08;;
70997;SDS011;58663;52.040;4.634;2023-02-21T05:05:56;69.25;;;25.05;;
70997;SDS011;58663;52.040;4.634;2023-02-21T05:08:22;70.22;;;25.30;;
70997;SDS011;58663;52.040;4.634;2023-02-21T05:10:48;71.25;;;24.95;;
70997;SDS011;58663;52.040;4.634;2023-02-21T05:13:13;65.50;;;24.95;;
70997;SDS011;58663;52.040;4.634;2023-02-21T05:15:39;68.88;;;25.17;;
70997;SDS011;58663;52.040;4.634;2023-02-21T05:18:04;64.90;;;24.05;;
70997;SDS011;58663;52.040;4.634;2023-02-21T05:20:30;72.93;;;24.25;;
70997;SDS011;58663;52.040;4.634;2023-02-21T05:22:55;70.28;;;25.48;;
70997;SDS011;58663;52.040;4.634;2023-02-21T05:25:21;66.22;;;24.17;;
70997;SDS011;58663;52.040;4.634;2023-02-21T05:27:48;63.20;;;25.25;;
70997;SDS011;58663;52.040;4.634;2023-02-21T05:30:15;64.68;;;23.67;;
70997;SDS011;58663;52.040;4.634;2023-02-21T05:32:42;72.28;;;25.42;;
70997;SDS011;58663;52.040;4.634;2023-02-21T05:35:08;74.03;;;25.88;;
70997;SDS011;58663;52.040;4.634;2023-02-21T05:37:34;70.93;;;25.80;;
70997;SDS011;58663;52.040;4.634;2023-02-21T05:40:00;73.32;;;25.33;;
70997;SDS011;58663;52.040;4.634;2023-02-21T05:42:26;69.55;;;25.67;;
70997;SDS011;58663;52.040;4.634;2023-02-21T05:44:51;72.78;;;26.13;;
70997;SDS011;58663;52.040;4.634;2023-02-21T05:47:16;69.47;;;25.48;;
70997;SDS011;58663;52.040;4.634;2023-02-21T05:49:42;65.55;;;25.02;;
70997;SDS011;58663;52.040;4.634;2023-02-21T05:52:10;72.35;;;25.25;;
70997;SDS011;58663;52.040;4.634;2023-02-21T05:54:37;72.75;;;26.13;;
70997;SDS011;58663;52.040;4.634;2023-02-21T05:57:02;68.78;;;26.00;;
70997;SDS011;58663;52.040;4.634;2023-02-21T05:59:28;75.55;;;24.05;;
70997;SDS011;58663;52.040;4.634;2023-02-21T06:01:53;72.07;;;26.15;;
70997;SDS011;58663;52.040;4.634;2023-02-21T06:04:19;72.07;;;26.77;;
70997;SDS011;58663;52.040;4.634;2023-02-21T06:06:45;64.25;;;24.92;;
70997;SDS011;58663;52.040;4.634;2023-02-21T06:09:10;71.32;;;26.20;;
70997;SDS011;58663;52.040;4.634;2023-02-21T06:11:36;69.82;;;24.85;;
70997;SDS011;58663;52.040;4.634;2023-02-21T06:14:03;72.10;;;28.10;;
70997;SDS011;58663;52.040;4.634;2023-02-21T06:16:33;74.07;;;26.02;;
70997;SDS011;58663;52.040;4.634;2023-02-21T06:19:00;71.82;;;25.70;;
70997;SDS011;58663;52.040;4.634;2023-02-21T06:21:26;72.72;;;26.27;;
70997;SDS011;58663;52.040;4.634;2023-02-21T06:23:51;73.75;;;25.30;;
70997;SDS011;58663;52.040;4.634;2023-02-21T06:26:17;81.15;;;26.65;;
70997;SDS011;58663;52.040;4.634;2023-02-21T06:28:43;79.28;;;26.92;;
70997;SDS011;58663;52.040;4.634;2023-02-21T06:31:08;81.80;;;27.88;;
70997;SDS011;58663;52.040;4.634;2023-02-21T06:33:33;73.18;;;26.75;;
70997;SDS011;58663;52.040;4.634;2023-02-21T06:36:03;72.93;;;26.30;;
70997;SDS011;58663;52.040;4.634;2023-02-21T06:38:29;73.63;;;25.88;;
70997;SDS011;58663;52.040;4.634;2023-02-21T06:40:55;71.18;;;25.27;;
70997;SDS011;58663;52.040;4.634;2023-02-21T06:43:20;73.03;;;25.80;;
70997;SDS011;58663;52.040;4.634;2023-02-21T06:45:45;67.55;;;26.45;;
70997;SDS011;58663;52.040;4.634;2023-02-21T06:48:15;67.45;;;24.92;;
70997;SDS011;58663;52.040;4.634;2023-02-21T06:50:40;73.25;;;27.10;;
70997;SDS011;58663;52.040;4.634;2023-02-21T06:53:06;74.45;;;27.63;;
70997;SDS011;58663;52.040;4.634;2023-02-21T06:55:31;70.07;;;26.13;;
70997;SDS011;58663;52.040;4.634;2023-02-21T06:57:56;69.82;;;25.35;;
70997;SDS011;58663;52.040;4.634;2023-02-21T07:00:22;70.88;;;24.08;;
70997;SDS011;58663;52.040;4.634;2023-02-21T07:02:47;75.03;;;24.13;;
70997;SDS011;58663;52.040;4.634;2023-02-21T07:05:13;71.28;;;28.20;;
70997;SDS011;58663;52.040;4.634;2023-02-21T07:07:40;73.47;;;25.70;;
70997;SDS011;58663;52.040;4.634;2023-02-21T07:10:07;69.47;;;24.98;;
70997;SDS011;58663;52.040;4.634;2023-02-21T07:12:32;71.18;;;25.63;;
70997;SDS011;58663;52.040;4.634;2023-02-21T07:14:57;73.93;;;23.92;;
70997;SDS011;58663;52.040;4.634;2023-02-21T07:17:23;78.22;;;25.42;;
70997;SDS011;58663;52.040;4.634;2023-02-21T07:19:48;75.00;;;25.50;;
70997;SDS011;58663;52.040;4.634;2023-02-21T07:22:13;76.85;;;25.77;;
70997;SDS011;58663;52.040;4.634;2023-02-21T07:24:39;69.60;;;25.25;;
70997;SDS011;58663;52.040;4.634;2023-02-21T07:27:05;66.53;;;23.85;;
70997;SDS011;58663;52.040;4.634;2023-02-21T07:29:31;68.30;;;25.67;;
70997;SDS011;58663;52.040;4.634;2023-02-21T07:31:56;72.57;;;24.73;;
70997;SDS011;58663;52.040;4.634;2023-02-21T07:34:22;69.68;;;24.10;;
70997;SDS011;58663;52.040;4.634;2023-02-21T07:36:47;67.85;;;24.83;;
70997;SDS011;58663;52.040;4.634;2023-02-21T07:39:13;65.05;;;23.95;;
70997;SDS011;58663;52.040;4.634;2023-02-21T07:41:39;64.07;;;23.92;;
70997;SDS011;58663;52.040;4.634;2023-02-21T07:44:04;61.08;;;22.75;;
70997;SDS011;58663;52.040;4.634;2023-02-21T07:46:31;73.47;;;26.88;;
70997;SDS011;58663;52.040;4.634;2023-02-21T07:48:58;66.07;;;25.20;;
70997;SDS011;58663;52.040;4.634;2023-02-21T07:51:26;60.75;;;23.60;;
70997;SDS011;58663;52.040;4.634;2023-02-21T07:53:52;67.88;;;23.23;;
70997;SDS011;58663;52.040;4.634;2023-02-21T07:56:18;59.17;;;23.90;;
70997;SDS011;58663;52.040;4.634;2023-02-21T07:58:43;62.42;;;23.45;;
70997;SDS011;58663;52.040;4.634;2023-02-21T08:01:08;67.88;;;25.08;;
70997;SDS011;58663;52.040;4.634;2023-02-21T08:03:34;59.85;;;23.73;;
70997;SDS011;58663;52.040;4.634;2023-02-21T08:06:01;61.97;;;22.83;;
70997;SDS011;58663;52.040;4.634;2023-02-21T08:08:27;55.38;;;22.77;;
70997;SDS011;58663;52.040;4.634;2023-02-21T08:10:53;56.33;;;22.83;;
70997;SDS011;58663;52.040;4.634;2023-02-21T08:13:18;54.83;;;23.17;;
70997;SDS011;58663;52.040;4.634;2023-02-21T08:15:43;57.72;;;24.02;;
70997;SDS011;58663;52.040;4.634;2023-02-21T08:18:19;51.72;;;21.88;;
70997;SDS011;58663;52.040;4.634;2023-02-21T08:20:48;53.90;;;21.83;;
70997;SDS011;58663;52.040;4.634;2023-02-21T08:23:15;55.72;;;22.85;;
70997;SDS011;58663;52.040;4.634;2023-02-21T08:25:42;59.55;;;20.92;;
70997;SDS011;58663;52.040;4.634;2023-02-21T08:28:08;51.78;;;21.27;;
70997;SDS011;58663;52.040;4.634;2023-02-21T08:30:33;58.08;;;22.42;;
70997;SDS011;58663;52.040;4.634;2023-02-21T08:32:58;49.53;;;22.10;;
70997;SDS011;58663;52.040;4.634;2023-02-21T08:35:24;50.70;;;21.05;;
70997;SDS011;58663;52.040;4.634;2023-02-21T08:37:49;56.78;;;21.75;;
70997;SDS011;58663;52.040;4.634;2023-02-21T08:40:17;54.50;;;21.73;;
70997;SDS011;58663;52.040;4.634;2023-02-21T08:42:46;45.28;;;21.15;;
70997;SDS011;58663;52.040;4.634;2023-02-21T08:45:17;52.03;;;21.87;;
70997;SDS011;58663;52.040;4.634;2023-02-21T08:47:44;57.03;;;21.30;;
70997;SDS011;58663;52.040;4.634;2023-02-21T08:50:09;53.22;;;20.92;;
70997;SDS011;58663;52.040;4.634;2023-02-21T08:52:35;51.20;;;20.98;;
70997;SDS011;58663;52.040;4.634;2023-02-21T08:55:00;53.50;;;21.02;;
70997;SDS011;58663;52.040;4.634;2023-02-21T08:57:26;48.33;;;20.75;;
70997;SDS011;58663;52.040;4.634;2023-02-21T08:59:51;55.05;;;21.48;;
70997;SDS011;58663;52.040;4.634;2023-02-21T09:02:18;53.95;;;22.35;;
70997;SDS011;58663;52.040;4.634;2023-02-21T09:04:45;49.45;;;22.08;;
70997;SDS011;58663;52.040;4.634;2023-02-21T09:07:12;57.70;;;23.92;;
70997;SDS011;58663;52.040;4.634;2023-02-21T09:09:38;49.35;;;21.77;;
70997;SDS011;58663;52.040;4.634;2023-02-21T09:12:03;56.65;;;22.13;;
70997;SDS011;58663;52.040;4.634;2023-02-21T09:14:32;56.22;;;21.83;;
70997;SDS011;58663;52.040;4.634;2023-02-21T09:16:59;51.50;;;22.33;;
70997;SDS011;58663;52.040;4.634;2023-02-21T09:19:24;71.70;;;24.15;;
70997;SDS011;58663;52.040;4.634;2023-02-21T09:21:49;54.33;;;22.55;;
70997;SDS011;58663;52.040;4.634;2023-02-21T09:24:19;55.80;;;21.93;;
70997;SDS011;58663;52.040;4.634;2023-02-21T09:26:55;56.33;;;23.53;;
70997;SDS011;58663;52.040;4.634;2023-02-21T09:29:29;54.17;;;21.65;;
70997;SDS011;58663;52.040;4.634;2023-02-21T09:31:55;63.50;;;22.45;;
70997;SDS011;58663;52.040;4.634;2023-02-21T09:34:20;57.08;;;23.33;;
70997;SDS011;58663;52.040;4.634;2023-02-21T09:36:46;52.75;;;22.50;;
70997;SDS011;58663;52.040;4.634;2023-02-21T09:39:12;55.60;;;22.30;;
70997;SDS011;58663;52.040;4.634;2023-02-21T09:41:39;61.65;;;22.48;;
70997;SDS011;58663;52.040;4.634;2023-02-21T09:44:07;54.75;;;21.73;;
70997;SDS011;58663;52.040;4.634;2023-02-21T09:49:05;56.65;;;22.33;;
70997;SDS011;58663;52.040;4.634;2023-02-21T09:51:31;58.38;;;23.52;;
70997;SDS011;58663;52.040;4.634;2023-02-21T09:53:58;58.60;;;23.25;;
70997;SDS011;58663;52.040;4.634;2023-02-21T09:56:42;60.78;;;22.35;;
70997;SDS011;58663;52.040;4.634;2023-02-21T09:59:12;59.08;;;22.55;;
70997;SDS011;58663;52.040;4.634;2023-02-21T10:04:28;57.53;;;23.20;;
70997;SDS011;58663;52.040;4.634;2023-02-21T10:11:56;64.72;;;23.35;;
70997;SDS011;58663;52.040;4.634;2023-02-21T10:17:35;64.35;;;22.73;;
70997;SDS011;58663;52.040;4.634;2023-02-21T10:20:10;67.00;;;24.55;;
70997;SDS011;58663;52.040;4.634;2023-02-21T10:22:39;64.18;;;21.80;;
70997;SDS011;58663;52.040;4.634;2023-02-21T10:25:20;64.72;;;23.60;;
70997;SDS011;58663;52.040;4.634;2023-02-21T10:27:46;65.20;;;22.75;;
70997;SDS011;58663;52.040;4.634;2023-02-21T10:30:16;64.22;;;22.92;;
70997;SDS011;58663;52.040;4.634;2023-02-21T10:32:48;75.80;;;24.40;;
70997;SDS011;58663;52.040;4.634;2023-02-21T10:35:13;65.00;;;23.67;;
70997;SDS011;58663;52.040;4.634;2023-02-21T10:37:55;63.08;;;22.20;;
70997;SDS011;58663;52.040;4.634;2023-02-21T10:40:25;64.13;;;22.75;;
70997;SDS011;58663;52.040;4.634;2023-02-21T10:42:56;58.08;;;22.20;;
70997;SDS011;58663;52.040;4.634;2023-02-21T10:46:22;61.70;;;22.75;;
70997;SDS011;58663;52.040;4.634;2023-02-21T10:48:24;60.47;;;20.47;;
70997;SDS011;58663;52.040;4.634;2023-02-21T10:53:31;60.20;;;19.70;;
70997;SDS011;58663;52.040;4.634;2023-02-21T10:56:12;55.65;;;20.10;;
70997;SDS011;58663;52.040;4.634;2023-02-21T11:01:12;46.55;;;19.98;;
70997;SDS011;58663;52.040;4.634;2023-02-21T11:03:46;53.50;;;18.80;;
70997;SDS011;58663;52.040;4.634;2023-02-21T11:06:21;52.67;;;18.83;;
70997;SDS011;58663;52.040;4.634;2023-02-21T11:08:49;55.92;;;19.45;;
70997;SDS011;58663;52.040;4.634;2023-02-21T11:11:14;45.75;;;17.25;;
70997;SDS011;58663;52.040;4.634;2023-02-21T11:13:40;43.00;;;16.10;;
70997;SDS011;58663;52.040;4.634;2023-02-21T11:16:09;42.00;;;16.35;;
70997;SDS011;58663;52.040;4.634;2023-02-21T11:18:35;44.80;;;16.02;;
70997;SDS011;58663;52.040;4.634;2023-02-21T11:21:10;44.90;;;15.77;;
70997;SDS011;58663;52.040;4.634;2023-02-21T11:23:37;47.38;;;17.50;;
70997;SDS011;58663;52.040;4.634;2023-02-21T11:26:13;40.78;;;16.05;;
70997;SDS011;58663;52.040;4.634;2023-02-21T11:28:42;44.55;;;15.50;;
70997;SDS011;58663;52.040;4.634;2023-02-21T11:31:17;38.65;;;15.98;;
70997;SDS011;58663;52.040;4.634;2023-02-21T11:33:54;36.88;;;14.60;;
70997;SDS011;58663;52.040;4.634;2023-02-21T11:36:25;34.05;;;13.82;;
70997;SDS011;58663;52.040;4.634;2023-02-21T11:41:46;29.48;;;12.68;;
70997;SDS011;58663;52.040;4.634;2023-02-21T11:47:02;32.67;;;13.90;;
70997;SDS011;58663;52.040;4.634;2023-02-21T11:52:02;24.65;;;12.43;;
70997;SDS011;58663;52.040;4.634;2023-02-21T11:54:30;30.50;;;12.63;;
70997;SDS011;58663;52.040;4.634;2023-02-21T11:57:09;32.58;;;12.95;;
70997;SDS011;58663;52.040;4.634;2023-02-21T11:59:58;35.72;;;14.40;;
70997;SDS011;58663;52.040;4.634;2023-02-21T12:05:28;33.00;;;14.05;;
70997;SDS011;58663;52.040;4.634;2023-02-21T12:11:10;32.33;;;14.93;;
70997;SDS011;58663;52.040;4.634;2023-02-21T12:16:26;31.77;;;14.70;;
70997;SDS011;58663;52.040;4.634;2023-02-21T12:41:42;41.33;;;18.55;;
70997;SDS011;58663;52.040;4.634;2023-02-21T12:49:45;47.90;;;19.50;;
70997;SDS011;58663;52.040;4.634;2023-02-21T12:55:35;54.75;;;21.67;;
70997;SDS011;58663;52.040;4.634;2023-02-21T13:00:42;50.08;;;21.73;;
70997;SDS011;58663;52.040;4.634;2023-02-21T13:06:04;52.70;;;24.67;;
70997;SDS011;58663;52.040;4.634;2023-02-21T13:08:37;47.40;;;22.42;;
70997;SDS011;58663;52.040;4.634;2023-02-21T13:11:11;48.47;;;22.15;;
70997;SDS011;58663;52.040;4.634;2023-02-21T13:13:39;43.67;;;21.27;;
70997;SDS011;58663;52.040;4.634;2023-02-21T13:16:05;46.45;;;19.85;;
70997;SDS011;58663;52.040;4.634;2023-02-21T13:27:27;38.35;;;17.85;;
70997;SDS011;58663;52.040;4.634;2023-02-21T13:30:08;35.97;;;14.25;;
70997;SDS011;58663;52.040;4.634;2023-02-21T13:32:51;35.83;;;14.73;;
70997;SDS011;58663;52.040;4.634;2023-02-21T13:35:20;24.65;;;11.50;;
70997;SDS011;58663;52.040;4.634;2023-02-21T13:37:49;24.23;;;11.07;;
70997;SDS011;58663;52.040;4.634;2023-02-21T13:40:35;23.05;;;10.75;;
70997;SDS011;58663;52.040;4.634;2023-02-21T13:43:25;23.05;;;9.15;;
70997;SDS011;58663;52.040;4.634;2023-02-21T13:45:53;20.13;;;9.48;;
70997;SDS011;58663;52.040;4.634;2023-02-21T13:48:24;18.63;;;9.07;;
70997;SDS011;58663;52.040;4.634;2023-02-21T13:50:51;19.50;;;7.72;;
70997;SDS011;58663;52.040;4.634;2023-02-21T13:53:20;18.65;;;8.95;;
70997;SDS011;58663;52.040;4.634;2023-02-21T13:58:32;18.70;;;8.98;;
70997;SDS011;58663;52.040;4.634;2023-02-21T14:08:55;24.58;;;12.57;;
70997;SDS011;58663;52.040;4.634;2023-02-21T14:11:26;29.98;;;15.85;;
70997;SDS011;58663;52.040;4.634;2023-02-21T14:13:54;29.15;;;14.65;;
70997;SDS011;58663;52.040;4.634;2023-02-21T14:16:24;28.52;;;14.20;;
70997;SDS011;58663;52.040;4.634;2023-02-21T14:21:47;29.27;;;16.17;;
70997;SDS011;58663;52.040;4.634;2023-02-21T14:24:27;30.95;;;16.80;;
70997;SDS011;58663;52.040;4.634;2023-02-21T14:27:30;33.85;;;17.92;;
70997;SDS011;58663;52.040;4.634;2023-02-21T14:32:30;34.15;;;19.40;;
70997;SDS011;58663;52.040;4.634;2023-02-21T14:34:58;32.55;;;16.90;;
70997;SDS011;58663;52.040;4.634;2023-02-21T14:47:47;28.77;;;15.52;;
70997;SDS011;58663;52.040;4.634;2023-02-21T14:58:27;34.80;;;15.77;;
70997;SDS011;58663;52.040;4.634;2023-02-21T15:03:41;36.70;;;17.98;;
70997;SDS011;58663;52.040;4.634;2023-02-21T15:06:17;39.35;;;19.33;;
70997;SDS011;58663;52.040;4.634;2023-02-21T15:08:50;39.95;;;19.10;;
70997;SDS011;58663;52.040;4.634;2023-02-21T15:16:54;50.85;;;22.20;;
70997;SDS011;58663;52.040;4.634;2023-02-21T15:19:28;47.70;;;19.50;;
70997;SDS011;58663;52.040;4.634;2023-02-21T15:24:57;48.03;;;21.75;;
70997;SDS011;58663;52.040;4.634;2023-02-21T15:27:35;51.53;;;22.90;;
70997;SDS011;58663;52.040;4.634;2023-02-21T15:32:34;54.33;;;22.33;;
70997;SDS011;58663;52.040;4.634;2023-02-21T15:35:00;59.78;;;22.30;;
70997;SDS011;58663;52.040;4.634;2023-02-21T15:37:28;61.50;;;23.13;;
70997;SDS011;58663;52.040;4.634;2023-02-21T15:39:56;62.20;;;22.80;;
70997;SDS011;58663;52.040;4.634;2023-02-21T15:42:24;54.55;;;21.88;;
70997;SDS011;58663;52.040;4.634;2023-02-21T15:45:37;68.85;;;24.67;;
70997;SDS011;58663;52.040;4.634;2023-02-21T15:47:44;67.75;;;23.88;;
70997;SDS011;58663;52.040;4.634;2023-02-21T15:55:44;69.45;;;24.48;;
70997;SDS011;58663;52.040;4.634;2023-02-21T15:58:12;80.00;;;26.23;;
70997;SDS011;58663;52.040;4.634;2023-02-21T16:00:39;72.57;;;26.48;;
70997;SDS011;58663;52.040;4.634;2023-02-21T16:08:37;71.40;;;26.13;;
70997;SDS011;58663;52.040;4.634;2023-02-21T16:11:13;66.75;;;27.17;;
70997;SDS011;58663;52.040;4.634;2023-02-21T16:13:39;70.18;;;26.10;;
70997;SDS011;58663;52.040;4.634;2023-02-21T16:16:05;76.53;;;27.63;;
70997;SDS011;58663;52.040;4.634;2023-02-21T16:18:31;70.85;;;26.23;;
70997;SDS011;58663;52.040;4.634;2023-02-21T16:20:58;74.38;;;28.27;;
70997;SDS011;58663;52.040;4.634;2023-02-21T16:23:29;72.03;;;26.30;;
70997;SDS011;58663;52.040;4.634;2023-02-21T16:28:31;74.15;;;26.10;;
70997;SDS011;58663;52.040;4.634;2023-02-21T16:30:57;75.28;;;29.67;;
70997;SDS011;58663;52.040;4.634;2023-02-21T16:33:25;79.55;;;28.02;;
70997;SDS011;58663;52.040;4.634;2023-02-21T16:35:51;79.78;;;28.65;;
70997;SDS011;58663;52.040;4.634;2023-02-21T16:38:17;76.13;;;28.40;;
70997;SDS011;58663;52.040;4.634;2023-02-21T16:40:44;78.70;;;28.25;;
70997;SDS011;58663;52.040;4.634;2023-02-21T16:43:15;86.53;;;27.83;;
70997;SDS011;58663;52.040;4.634;2023-02-21T16:45:42;80.82;;;26.90;;
70997;SDS011;58663;52.040;4.634;2023-02-21T16:48:09;87.50;;;29.25;;
70997;SDS011;58663;52.040;4.634;2023-02-21T16:50:41;73.45;;;26.17;;
70997;SDS011;58663;52.040;4.634;2023-02-21T16:53:08;84.00;;;26.52;;
70997;SDS011;58663;52.040;4.634;2023-02-21T16:55:36;83.90;;;27.70;;
70997;SDS011;58663;52.040;4.634;2023-02-21T16:58:02;81.25;;;28.17;;
70997;SDS011;58663;52.040;4.634;2023-02-21T17:00:30;77.47;;;25.52;;
70997;SDS011;58663;52.040;4.634;2023-02-21T17:02:57;75.82;;;27.65;;
70997;SDS011;58663;52.040;4.634;2023-02-21T17:05:22;80.53;;;27.52;;
70997;SDS011;58663;52.040;4.634;2023-02-21T17:07:51;82.97;;;28.15;;
70997;SDS011;58663;52.040;4.634;2023-02-21T17:10:18;77.25;;;25.83;;
70997;SDS011;58663;52.040;4.634;2023-02-21T17:12:44;57.13;;;22.75;;
70997;SDS011;58663;52.040;4.634;2023-02-21T17:15:09;68.10;;;24.63;;
70997;SDS011;58663;52.040;4.634;2023-02-21T17:17:35;81.43;;;24.98;;
70997;SDS011;58663;52.040;4.634;2023-02-21T17:20:00;70.38;;;25.27;;
70997;SDS011;58663;52.040;4.634;2023-02-21T17:22:26;78.07;;;25.70;;
70997;SDS011;58663;52.040;4.634;2023-02-21T17:24:51;71.82;;;24.00;;
70997;SDS011;58663;52.040;4.634;2023-02-21T17:27:17;74.95;;;26.02;;
70997;SDS011;58663;52.040;4.634;2023-02-21T17:29:42;76.78;;;24.67;;
70997;SDS011;58663;52.040;4.634;2023-02-21T17:32:07;75.55;;;24.20;;
70997;SDS011;58663;52.040;4.634;2023-02-21T17:34:33;70.82;;;23.90;;
70997;SDS011;58663;52.040;4.634;2023-02-21T17:36:58;63.67;;;22.40;;
70997;SDS011;58663;52.040;4.634;2023-02-21T17:39:24;69.50;;;21.92;;
70997;SDS011;58663;52.040;4.634;2023-02-21T17:41:50;63.58;;;23.02;;
70997;SDS011;58663;52.040;4.634;2023-02-21T17:44:15;75.00;;;24.10;;
70997;SDS011;58663;52.040;4.634;2023-02-21T17:46:47;74.63;;;24.02;;
70997;SDS011;58663;52.040;4.634;2023-02-21T17:49:17;67.03;;;23.83;;